createdAt,value
2022-12-07T00:01:49.613Z,6.15
2022-12-07T00:04:17.933Z,5.10
2022-12-07T00:06:46.114Z,5.03
2022-12-07T00:09:17.578Z,5.45
2022-12-07T00:11:46.041Z,5.70
2022-12-07T00:14:14.438Z,5.55
2022-12-07T00:16:41.936Z,5.18
2022-12-07T00:19:09.323Z,5.65
2022-12-07T00:21:37.177Z,5.80
2022-12-07T00:24:05.158Z,5.35
2022-12-07T00:26:36.849Z,5.78
2022-12-07T00:29:06.924Z,5.43
2022-12-07T00:31:36.978Z,5.20
2022-12-07T00:34:04.220Z,5.30
2022-12-07T00:36:31.426Z,4.55
2022-12-07T00:39:02.000Z,4.80
2022-12-07T00:41:29.847Z,5.00
2022-12-07T00:43:57.242Z,5.00
2022-12-07T00:46:25.057Z,5.57
2022-12-07T00:48:52.682Z,4.90
2022-12-07T00:51:21.589Z,4.90
2022-12-07T00:53:48.733Z,5.50
2022-12-07T00:56:17.439Z,6.07
2022-12-07T00:58:45.159Z,6.43
2022-12-07T01:01:12.915Z,4.32
2022-12-07T01:03:40.182Z,5.22
2022-12-07T01:06:07.367Z,5.13
2022-12-07T01:08:34.582Z,4.35
2022-12-07T01:11:02.952Z,4.53
2022-12-07T01:13:30.290Z,5.38
2022-12-07T01:16:01.327Z,5.63
2022-12-07T01:18:29.659Z,4.47
2022-12-07T01:21:23.428Z,5.03
2022-12-07T01:23:51.360Z,4.25
2022-12-07T01:26:20.207Z,4.95
2022-12-07T01:28:47.886Z,4.90
2022-12-07T01:31:16.546Z,5.20
2022-12-07T01:33:44.903Z,4.47
2022-12-07T01:36:17.913Z,5.07
2022-12-07T01:38:45.818Z,4.30
2022-12-07T01:41:13.374Z,4.45
2022-12-07T01:44:03.675Z,4.47
2022-12-07T01:46:30.987Z,4.45
2022-12-07T01:48:58.145Z,4.10
2022-12-07T01:51:25.322Z,3.85
2022-12-07T01:53:52.507Z,4.10
2022-12-07T01:56:21.536Z,4.03
2022-12-07T01:58:49.656Z,3.88
2022-12-07T02:01:16.848Z,4.68
2022-12-07T02:03:45.574Z,4.22
2022-12-07T02:06:14.483Z,5.15
2022-12-07T02:08:41.903Z,4.47
2022-12-07T02:11:09.720Z,5.55
2022-12-07T02:13:38.382Z,4.97
2022-12-07T02:16:05.607Z,4.55
2022-12-07T02:18:51.618Z,4.93
2022-12-07T02:21:18.690Z,4.57
2022-12-07T02:23:48.906Z,4.93
2022-12-07T02:26:37.161Z,4.10
2022-12-07T02:29:13.503Z,4.05
2022-12-07T02:31:44.582Z,4.60
2022-12-07T02:34:16.551Z,4.70
2022-12-07T02:36:51.789Z,4.25
2022-12-07T02:39:20.777Z,4.25
2022-12-07T02:41:54.593Z,5.40
2022-12-07T02:44:23.678Z,3.60
2022-12-07T02:47:03.232Z,4.57
2022-12-07T02:49:31.111Z,4.25
2022-12-07T02:52:01.034Z,4.28
2022-12-07T02:54:28.204Z,3.95
2022-12-07T02:57:01.888Z,4.07
2022-12-07T02:59:38.053Z,4.13
2022-12-07T03:02:24.420Z,4.07
2022-12-07T03:05:02.259Z,4.35
2022-12-07T03:07:48.295Z,3.63
2022-12-07T03:10:18.454Z,4.55
2022-12-07T03:12:45.585Z,4.15
2022-12-07T03:15:27.775Z,4.13
2022-12-07T03:17:56.658Z,3.72
2022-12-07T03:20:25.273Z,3.67
2022-12-07T03:22:52.898Z,4.45
2022-12-07T03:25:20.316Z,4.18
2022-12-07T03:27:53.067Z,4.30
2022-12-07T03:30:22.087Z,3.72
2022-12-07T03:32:52.069Z,3.88
2022-12-07T03:35:25.824Z,3.92
2022-12-07T03:38:01.946Z,3.55
2022-12-07T03:40:37.199Z,4.18
2022-12-07T03:43:05.233Z,3.83
2022-12-07T03:45:42.887Z,3.88
2022-12-07T03:48:10.007Z,3.83
2022-12-07T03:50:44.508Z,3.80
2022-12-07T03:53:21.591Z,4.05
2022-12-07T03:55:50.363Z,3.58
2022-12-07T03:58:19.283Z,4.53
2022-12-07T04:00:46.663Z,3.45
2022-12-07T04:03:14.023Z,2.63
2022-12-07T04:05:41.326Z,3.42
2022-12-07T04:08:08.807Z,4.18
2022-12-07T04:10:36.398Z,3.33
2022-12-07T04:13:03.971Z,3.13
2022-12-07T04:15:31.163Z,2.60
2022-12-07T04:17:58.309Z,2.70
2022-12-07T04:20:26.018Z,4.25
2022-12-07T04:22:53.385Z,3.05
2022-12-07T04:25:20.611Z,3.42
2022-12-07T04:27:47.738Z,2.95
2022-12-07T04:30:14.997Z,3.53
2022-12-07T04:32:42.244Z,2.90
2022-12-07T04:35:09.959Z,3.17
2022-12-07T04:37:37.155Z,3.28
2022-12-07T04:40:05.019Z,2.83
2022-12-07T04:42:32.314Z,2.10
2022-12-07T04:44:59.398Z,1.80
2022-12-07T04:47:26.566Z,2.05
2022-12-07T04:49:53.734Z,2.03
2022-12-07T04:52:20.908Z,1.90
2022-12-07T04:54:48.238Z,1.73
2022-12-07T04:57:15.519Z,1.70
2022-12-07T04:59:45.817Z,1.67
2022-12-07T05:04:40.545Z,1.88
2022-12-07T05:07:07.698Z,1.60
2022-12-07T05:09:34.976Z,1.42
2022-12-07T05:12:02.134Z,1.83
2022-12-07T05:14:29.294Z,1.60
2022-12-07T05:16:56.477Z,1.58
2022-12-07T05:19:23.705Z,1.45
2022-12-07T05:21:51.052Z,1.83
2022-12-07T05:24:18.775Z,1.85
2022-12-07T05:26:46.471Z,2.13
2022-12-07T05:29:14.973Z,1.98
2022-12-07T05:31:42.448Z,1.48
2022-12-07T05:34:09.774Z,1.92
2022-12-07T05:36:36.954Z,1.50
2022-12-07T05:39:04.334Z,2.25
2022-12-07T05:41:50.038Z,2.00
2022-12-07T05:44:17.203Z,1.83
2022-12-07T05:46:44.481Z,1.75
2022-12-07T05:49:11.678Z,1.83
2022-12-07T05:51:38.810Z,2.05
2022-12-07T05:54:06.034Z,2.05
2022-12-07T05:56:33.220Z,2.20
2022-12-07T05:59:18.913Z,1.92
2022-12-07T06:01:46.145Z,2.10
2022-12-07T06:04:13.441Z,2.47
2022-12-07T06:06:40.732Z,1.98
2022-12-07T06:09:08.074Z,2.67
2022-12-07T06:11:53.985Z,2.55
2022-12-07T06:14:21.154Z,2.10
2022-12-07T06:16:48.409Z,2.28
2022-12-07T06:19:15.764Z,2.47
2022-12-07T06:21:43.053Z,2.78
2022-12-07T06:24:12.494Z,3.13
2022-12-07T06:26:39.932Z,1.77
2022-12-07T06:29:07.375Z,3.30
2022-12-07T06:31:34.565Z,2.22
2022-12-07T06:34:02.944Z,3.40
2022-12-07T06:36:30.463Z,3.20
2022-12-07T06:38:57.715Z,3.28
2022-12-07T06:41:25.342Z,4.15
2022-12-07T06:43:55.954Z,5.13
2022-12-07T06:46:24.448Z,4.13
2022-12-07T06:48:51.806Z,4.20
2022-12-07T06:51:19.222Z,3.88
2022-12-07T06:53:46.402Z,3.88
2022-12-07T06:56:13.946Z,2.85
2022-12-07T06:58:41.253Z,2.35
2022-12-07T07:01:12.576Z,2.50
2022-12-07T07:03:40.043Z,2.58
2022-12-07T07:06:08.530Z,3.08
2022-12-07T07:08:36.221Z,2.72
2022-12-07T07:11:04.931Z,2.83
2022-12-07T07:13:32.427Z,3.05
2022-12-07T07:15:59.710Z,3.13
2022-12-07T07:18:26.938Z,3.30
2022-12-07T07:20:54.341Z,3.13
2022-12-07T07:23:22.342Z,2.85
2022-12-07T07:25:49.866Z,2.65
2022-12-07T07:28:17.514Z,2.70
2022-12-07T07:30:44.770Z,2.80
2022-12-07T07:33:12.374Z,4.05
2022-12-07T07:35:40.220Z,6.80
2022-12-07T07:38:07.666Z,5.47
2022-12-07T07:40:35.095Z,4.63
2022-12-07T07:43:02.315Z,3.95
2022-12-07T07:45:29.679Z,3.60
2022-12-07T07:47:56.893Z,4.57
2022-12-07T07:50:24.148Z,3.95
2022-12-07T07:52:51.605Z,4.05
2022-12-07T07:55:18.980Z,3.13
2022-12-07T07:57:51.126Z,3.38
2022-12-07T08:00:20.307Z,3.75
2022-12-07T08:02:47.615Z,3.28
2022-12-07T08:05:15.220Z,4.05
2022-12-07T08:07:42.653Z,3.83
2022-12-07T08:10:11.499Z,3.35
2022-12-07T08:12:59.460Z,3.20
2022-12-07T08:15:27.668Z,3.70
2022-12-07T08:17:55.023Z,3.72
2022-12-07T08:20:22.345Z,2.92
2022-12-07T08:22:49.706Z,2.40
2022-12-07T08:25:16.951Z,2.33
2022-12-07T08:27:44.206Z,2.15
2022-12-07T08:30:11.589Z,2.50
2022-12-07T08:32:40.171Z,2.88
2022-12-07T08:35:07.638Z,2.75
2022-12-07T08:37:35.259Z,2.15
2022-12-07T08:40:02.797Z,3.33
2022-12-07T08:42:38.489Z,3.65
2022-12-07T08:45:07.582Z,4.72
2022-12-07T08:47:36.246Z,4.57
2022-12-07T08:50:04.801Z,4.55
2022-12-07T08:52:33.955Z,3.72
2022-12-07T08:55:02.152Z,3.70
2022-12-07T08:57:29.839Z,3.17
2022-12-07T08:59:57.349Z,3.58
2022-12-07T09:02:24.530Z,7.00
2022-12-07T09:04:51.778Z,5.45
2022-12-07T09:07:19.106Z,3.97
2022-12-07T09:09:46.306Z,3.20
2022-12-07T09:12:13.472Z,2.42
2022-12-07T09:14:40.656Z,2.60
2022-12-07T09:17:08.893Z,2.88
2022-12-07T09:19:36.147Z,2.92
2022-12-07T09:22:03.399Z,3.60
2022-12-07T09:24:30.641Z,2.85
2022-12-07T09:26:58.445Z,3.00
2022-12-07T09:29:26.003Z,2.80
2022-12-07T09:31:53.449Z,2.40
2022-12-07T09:34:21.204Z,2.17
2022-12-07T09:36:48.560Z,2.58
2022-12-07T09:39:15.722Z,2.63
2022-12-07T09:41:44.373Z,2.65
2022-12-07T09:44:29.994Z,2.65
2022-12-07T09:46:57.692Z,2.63
2022-12-07T09:49:27.722Z,2.50
2022-12-07T09:52:03.943Z,2.47
2022-12-07T09:54:32.137Z,2.22
2022-12-07T09:57:00.451Z,2.55
2022-12-07T09:59:30.264Z,2.00
2022-12-07T10:02:18.998Z,2.55
2022-12-07T10:04:46.557Z,2.42
2022-12-07T10:07:13.763Z,2.15
2022-12-07T10:09:40.977Z,2.33
2022-12-07T10:12:12.684Z,2.40
2022-12-07T10:15:06.452Z,2.58
2022-12-07T10:17:34.622Z,2.30
2022-12-07T10:20:14.055Z,2.72
2022-12-07T10:22:55.723Z,2.15
2022-12-07T10:25:23.965Z,2.50
2022-12-07T10:28:01.841Z,2.50
2022-12-07T10:30:29.067Z,2.35
2022-12-07T10:32:56.345Z,2.90
2022-12-07T10:35:25.888Z,2.65
2022-12-07T10:37:54.052Z,2.50
2022-12-07T10:40:27.515Z,2.10
2022-12-07T10:43:22.063Z,2.17
2022-12-07T10:46:03.811Z,2.17
2022-12-07T10:48:36.037Z,2.15
2022-12-07T10:51:09.222Z,1.73
2022-12-07T10:53:39.511Z,1.95
2022-12-07T10:56:24.993Z,2.10
2022-12-07T10:59:10.983Z,2.80
2022-12-07T11:01:44.433Z,1.75
2022-12-07T11:04:30.461Z,1.95
2022-12-07T11:07:11.924Z,2.20
2022-12-07T11:10:08.859Z,2.40
2022-12-07T11:13:03.269Z,2.30
2022-12-07T11:15:36.554Z,2.30
2022-12-07T11:18:06.963Z,2.65
2022-12-07T11:20:43.823Z,1.83
2022-12-07T11:23:10.927Z,1.73
2022-12-07T11:25:45.781Z,2.40
2022-12-07T11:28:13.016Z,2.25
2022-12-07T11:30:45.052Z,2.55
2022-12-07T11:33:23.678Z,2.78
2022-12-07T11:35:50.834Z,2.97
2022-12-07T11:38:28.202Z,2.33
2022-12-07T11:41:13.576Z,2.40
2022-12-07T11:43:59.601Z,1.88
2022-12-07T11:46:29.188Z,1.88
2022-12-07T11:49:11.313Z,2.28
2022-12-07T11:51:39.426Z,2.10
2022-12-07T11:54:27.042Z,1.83
2022-12-07T11:56:57.277Z,1.45
2022-12-07T11:59:34.006Z,1.73
2022-12-07T12:02:12.183Z,1.95
2022-12-07T12:04:56.959Z,1.90
2022-12-07T12:10:24.976Z,1.33
2022-12-07T12:16:15.649Z,1.60
2022-12-07T12:19:08.401Z,2.08
2022-12-07T12:21:35.766Z,1.80
2022-12-07T12:24:26.307Z,1.25
2022-12-07T12:27:00.126Z,1.80
2022-12-07T12:29:40.739Z,1.50
2022-12-07T12:32:18.297Z,1.88
2022-12-07T12:34:50.714Z,1.80
2022-12-07T12:37:35.980Z,1.48
2022-12-07T12:40:17.918Z,2.03
2022-12-07T12:42:56.470Z,1.80
2022-12-07T12:45:29.169Z,1.80
2022-12-07T12:48:03.675Z,1.15
2022-12-07T12:50:33.186Z,1.25
2022-12-07T12:53:17.555Z,1.00
2022-12-07T12:55:44.735Z,1.13
2022-12-07T12:58:20.448Z,1.00
2022-12-07T13:00:48.396Z,1.33
2022-12-07T13:03:35.906Z,1.13
2022-12-07T13:06:20.566Z,1.13
2022-12-07T13:08:47.950Z,1.23
2022-12-07T13:11:35.378Z,1.60
2022-12-07T13:14:21.314Z,1.13
2022-12-07T13:16:48.478Z,1.90
2022-12-07T13:19:34.118Z,1.65
2022-12-07T13:22:01.363Z,1.58
2022-12-07T13:24:28.658Z,1.13
2022-12-07T13:26:57.387Z,1.23
2022-12-07T13:29:24.858Z,1.23
2022-12-07T13:31:52.032Z,1.55
2022-12-07T13:34:48.253Z,1.40
2022-12-07T13:37:32.448Z,1.60
2022-12-07T13:40:24.069Z,1.92
2022-12-07T13:42:59.306Z,1.83
2022-12-07T13:45:48.876Z,2.13
2022-12-07T13:48:28.450Z,2.20
2022-12-07T13:50:59.339Z,2.33
2022-12-07T13:53:31.392Z,2.40
2022-12-07T13:55:59.642Z,2.28
2022-12-07T13:58:28.186Z,2.58
2022-12-07T14:00:55.417Z,2.00
2022-12-07T14:03:26.973Z,2.03
2022-12-07T14:06:16.648Z,2.00
2022-12-07T14:08:44.564Z,2.28
2022-12-07T14:11:15.086Z,2.20
2022-12-07T14:13:51.118Z,2.33
2022-12-07T14:16:29.792Z,1.70
2022-12-07T14:18:58.922Z,1.60
2022-12-07T14:21:27.874Z,2.00
2022-12-07T14:24:10.476Z,2.20
2022-12-07T14:26:37.919Z,1.25
2022-12-07T14:29:21.469Z,1.40
2022-12-07T14:31:48.789Z,1.45
2022-12-07T14:34:16.189Z,1.10
2022-12-07T14:36:43.454Z,1.85
2022-12-07T14:39:13.539Z,1.42
2022-12-07T14:44:28.018Z,1.50
2022-12-07T14:49:44.127Z,4.43
2022-12-07T14:55:15.011Z,2.95
2022-12-07T14:57:42.172Z,2.80
2022-12-07T15:00:10.280Z,1.60
2022-12-07T15:02:38.462Z,2.03
2022-12-07T15:05:09.871Z,1.73
2022-12-07T15:07:39.835Z,2.05
2022-12-07T15:10:42.014Z,1.95
2022-12-07T15:13:50.967Z,1.98
2022-12-07T15:16:22.221Z,1.92
2022-12-07T15:19:25.839Z,2.40
2022-12-07T15:21:36.668Z,3.60
2022-12-07T15:24:03.887Z,3.20
2022-12-07T15:26:30.996Z,2.60
2022-12-07T15:28:58.090Z,2.72
2022-12-07T15:31:54.599Z,2.05
2022-12-07T15:34:12.810Z,3.30
2022-12-07T15:36:40.123Z,11.18
2022-12-07T15:39:15.090Z,21.70
2022-12-07T15:41:42.815Z,18.58
2022-12-07T15:44:40.664Z,25.63
2022-12-07T15:47:07.817Z,29.23
2022-12-07T15:49:36.340Z,22.38
2022-12-07T15:52:03.539Z,16.02
2022-12-07T15:54:31.280Z,13.38
2022-12-07T15:56:58.558Z,23.05
2022-12-07T15:59:27.150Z,11.70
2022-12-07T16:01:57.142Z,4.05
2022-12-07T16:04:24.387Z,4.70
2022-12-07T16:06:52.022Z,7.25
2022-12-07T16:09:20.144Z,6.03
2022-12-07T16:11:47.572Z,3.05
2022-12-07T16:14:14.982Z,3.10
2022-12-07T16:16:42.903Z,10.32
2022-12-07T16:19:10.385Z,10.65
2022-12-07T16:21:37.655Z,3.08
2022-12-07T16:24:06.154Z,3.35
2022-12-07T16:26:33.642Z,3.88
2022-12-07T16:29:01.418Z,7.00
2022-12-07T16:31:32.450Z,7.05
2022-12-07T16:34:00.185Z,10.10
2022-12-07T16:37:02.092Z,10.45
2022-12-07T16:39:15.647Z,9.73
2022-12-07T16:41:43.151Z,8.32
2022-12-07T16:44:13.351Z,8.27
2022-12-07T16:46:41.146Z,8.13
2022-12-07T16:49:13.869Z,7.25
2022-12-07T16:51:42.423Z,7.40
2022-12-07T16:54:11.688Z,6.05
2022-12-07T16:57:09.007Z,5.00
2022-12-07T16:59:27.474Z,5.25
2022-12-07T17:02:02.312Z,4.07
2022-12-07T17:04:30.223Z,4.97
2022-12-07T17:06:58.361Z,3.40
2022-12-07T17:09:25.548Z,4.07
2022-12-07T17:11:53.054Z,4.75
2022-12-07T17:14:46.410Z,5.10
2022-12-07T17:17:13.714Z,4.15
2022-12-07T17:19:41.452Z,4.82
2022-12-07T17:22:08.611Z,5.30
2022-12-07T17:24:35.810Z,4.45
2022-12-07T17:27:03.228Z,6.20
2022-12-07T17:29:30.367Z,4.63
2022-12-07T17:31:58.010Z,4.53
2022-12-07T17:34:25.439Z,4.40
2022-12-07T17:36:52.773Z,4.30
2022-12-07T17:39:20.384Z,4.65
2022-12-07T17:42:06.046Z,4.80
2022-12-07T17:44:35.979Z,3.85
2022-12-07T17:47:04.059Z,3.88
2022-12-07T17:49:31.414Z,3.55
2022-12-07T17:52:17.238Z,3.58
2022-12-07T17:54:44.699Z,2.90
2022-12-07T17:57:11.879Z,2.78
2022-12-07T17:59:39.323Z,2.25
2022-12-07T18:02:06.564Z,4.82
2022-12-07T18:04:33.991Z,4.68
2022-12-07T18:07:01.237Z,6.55
2022-12-07T18:09:28.425Z,4.13
2022-12-07T18:11:55.600Z,2.95
2022-12-07T18:14:22.849Z,3.40
2022-12-07T18:16:50.225Z,4.95
2022-12-07T18:19:17.611Z,4.00
2022-12-07T18:21:45.373Z,5.97
2022-12-07T18:24:13.503Z,8.60
2022-12-07T18:26:40.837Z,10.45
2022-12-07T18:29:08.266Z,8.85
2022-12-07T18:31:37.247Z,6.95
2022-12-07T18:34:05.629Z,9.52
2022-12-07T18:36:33.176Z,8.77
2022-12-07T18:39:00.422Z,6.95
2022-12-07T18:41:27.709Z,5.43
2022-12-07T18:43:55.037Z,5.70
2022-12-07T18:46:22.398Z,6.55
2022-12-07T18:48:53.099Z,5.97
2022-12-07T18:51:20.710Z,13.10
2022-12-07T18:53:48.009Z,5.97
2022-12-07T18:56:22.203Z,5.32
2022-12-07T18:59:08.350Z,5.38
2022-12-07T19:01:36.460Z,5.72
2022-12-07T19:04:04.239Z,6.68
2022-12-07T19:06:31.565Z,13.20
2022-12-07T19:08:59.113Z,8.98
2022-12-07T19:11:49.488Z,7.28
2022-12-07T19:14:18.355Z,5.10
2022-12-07T19:16:50.015Z,5.35
2022-12-07T19:22:06.549Z,5.38
2022-12-07T19:24:34.396Z,5.05
2022-12-07T19:27:01.974Z,5.53
2022-12-07T19:29:31.409Z,5.68
2022-12-07T19:32:02.223Z,8.75
2022-12-07T19:34:29.668Z,11.60
2022-12-07T19:36:56.895Z,15.43
2022-12-07T19:39:24.227Z,10.73
2022-12-07T19:41:51.535Z,9.38
2022-12-07T19:44:20.326Z,10.73
2022-12-07T19:46:50.145Z,12.82
2022-12-07T19:49:18.116Z,11.15
2022-12-07T19:51:46.666Z,14.77
2022-12-07T19:54:15.095Z,12.00
2022-12-07T19:56:43.336Z,10.60
2022-12-07T19:59:11.139Z,10.90
2022-12-07T20:01:40.593Z,13.35
2022-12-07T20:04:08.904Z,8.88
2022-12-07T20:06:36.106Z,14.27
2022-12-07T20:09:03.620Z,13.27
2022-12-07T20:11:49.141Z,12.93
2022-12-07T20:14:16.342Z,11.35
2022-12-07T20:16:47.887Z,12.25
2022-12-07T20:19:15.932Z,11.68
2022-12-07T20:21:44.214Z,10.05
2022-12-07T20:24:12.716Z,9.25
2022-12-07T20:26:40.707Z,7.20
2022-12-07T20:29:11.981Z,12.82
2022-12-07T20:31:45.330Z,15.65
2022-12-07T20:34:13.211Z,16.38
2022-12-07T20:36:43.009Z,10.73
2022-12-07T20:39:10.460Z,6.82
2022-12-07T20:41:56.260Z,5.78
2022-12-07T20:44:25.692Z,7.03
2022-12-07T20:46:55.028Z,8.75
2022-12-07T20:49:22.416Z,9.98
2022-12-07T20:51:51.053Z,11.00
2022-12-07T20:54:18.386Z,7.78
2022-12-07T20:56:45.581Z,8.63
2022-12-07T20:59:14.535Z,9.88
2022-12-07T21:01:42.137Z,9.80
2022-12-07T21:04:11.354Z,8.35
2022-12-07T21:06:38.490Z,8.98
2022-12-07T21:09:05.768Z,10.77
2022-12-07T21:11:33.249Z,8.55
2022-12-07T21:14:00.495Z,7.00
2022-12-07T21:16:29.633Z,6.63
2022-12-07T21:19:00.032Z,5.80
2022-12-07T21:21:27.289Z,4.45
2022-12-07T21:24:01.475Z,4.15
2022-12-07T21:26:29.814Z,4.95
2022-12-07T21:28:58.570Z,7.40
2022-12-07T21:31:26.851Z,5.88
2022-12-07T21:33:54.516Z,6.25
2022-12-07T21:36:22.748Z,4.78
2022-12-07T21:38:50.449Z,5.78
2022-12-07T21:41:25.656Z,5.80
2022-12-07T21:43:53.056Z,5.22
2022-12-07T21:46:25.726Z,6.78
2022-12-07T21:49:01.026Z,6.80
2022-12-07T21:51:29.456Z,6.40
2022-12-07T21:53:57.527Z,5.70
2022-12-07T21:56:25.954Z,6.22
2022-12-07T21:58:54.332Z,6.60
2022-12-07T22:01:22.834Z,5.47
2022-12-07T22:03:51.565Z,3.80
2022-12-07T22:06:20.304Z,4.90
2022-12-07T22:08:49.659Z,4.32
2022-12-07T22:11:16.885Z,4.60
2022-12-07T22:14:09.639Z,4.15
2022-12-07T22:16:38.043Z,4.03
2022-12-07T22:19:05.367Z,5.57
2022-12-07T22:21:32.557Z,4.30
2022-12-07T22:23:59.836Z,2.55
2022-12-07T22:26:27.616Z,3.30
2022-12-07T22:28:54.964Z,3.15
2022-12-07T22:31:22.579Z,3.00
2022-12-07T22:33:50.361Z,3.28
2022-12-07T22:36:18.022Z,3.33
2022-12-07T22:38:45.743Z,4.32
2022-12-07T22:41:14.196Z,3.17
2022-12-07T22:43:41.359Z,3.25
2022-12-07T22:46:08.725Z,3.13
2022-12-07T22:48:36.407Z,1.75
2022-12-07T22:51:04.018Z,2.70
2022-12-07T22:53:31.332Z,3.00
2022-12-07T22:55:58.522Z,2.83
2022-12-07T22:58:28.255Z,1.83
2022-12-07T23:00:55.512Z,2.03
2022-12-07T23:03:23.329Z,2.40
2022-12-07T23:05:50.603Z,2.80
2022-12-07T23:08:18.608Z,1.67
2022-12-07T23:10:46.996Z,3.03
2022-12-07T23:13:35.829Z,2.72
2022-12-07T23:16:10.226Z,1.83
2022-12-07T23:18:38.277Z,3.50
2022-12-07T23:21:09.035Z,3.10
2022-12-07T23:23:36.510Z,2.60
2022-12-07T23:26:04.637Z,2.20
2022-12-07T23:28:32.043Z,2.50
2022-12-07T23:31:06.693Z,2.03
2022-12-07T23:33:33.907Z,2.38
2022-12-07T23:36:11.162Z,2.60
2022-12-07T23:38:39.064Z,2.45
2022-12-07T23:41:10.302Z,3.35
2022-12-07T23:43:38.182Z,2.30
2022-12-07T23:46:09.603Z,2.13
2022-12-07T23:48:37.813Z,2.60
2022-12-07T23:51:05.250Z,2.60
2022-12-07T23:53:36.341Z,2.45
2022-12-07T23:56:03.951Z,2.03
2022-12-07T23:58:31.188Z,2.85
